createdAt,value
2022-09-27T00:01:12.086Z,6.13
2022-09-27T00:03:39.606Z,6.20
2022-09-27T00:06:15.359Z,5.82
2022-09-27T00:08:43.354Z,5.50
2022-09-27T00:11:24.023Z,5.72
2022-09-27T00:13:51.424Z,6.18
2022-09-27T00:16:18.256Z,6.35
2022-09-27T00:18:45.065Z,6.75
2022-09-27T00:21:13.571Z,6.45
2022-09-27T00:23:40.541Z,6.30
2022-09-27T00:26:08.554Z,6.95
2022-09-27T00:28:35.455Z,6.43
2022-09-27T00:31:02.555Z,6.68
2022-09-27T00:33:29.567Z,7.30
2022-09-27T00:36:03.118Z,7.07
2022-09-27T00:38:29.836Z,6.63
2022-09-27T00:40:56.604Z,7.00
2022-09-27T00:43:23.916Z,7.72
2022-09-27T00:45:55.513Z,7.38
2022-09-27T00:48:28.095Z,9.00
2022-09-27T00:50:58.957Z,9.68
2022-09-27T00:53:39.843Z,7.95
2022-09-27T00:56:12.282Z,7.15
2022-09-27T00:58:48.537Z,6.85
2022-09-27T01:01:15.365Z,6.10
2022-09-27T01:04:00.269Z,7.15
2022-09-27T01:06:27.151Z,7.40
2022-09-27T01:08:53.949Z,6.75
2022-09-27T01:11:32.800Z,7.15
2022-09-27T01:14:09.354Z,7.93
2022-09-27T01:16:36.105Z,7.20
2022-09-27T01:19:24.646Z,8.02
2022-09-27T01:22:00.250Z,7.70
2022-09-27T01:24:37.487Z,7.97
2022-09-27T01:27:22.725Z,8.23
2022-09-27T01:30:17.379Z,8.45
2022-09-27T01:32:58.936Z,8.13
2022-09-27T01:36:11.639Z,8.45
2022-09-27T01:41:14.494Z,8.40
2022-09-27T01:44:06.533Z,7.95
2022-09-27T01:46:47.235Z,8.20
2022-09-27T01:49:18.437Z,9.55
2022-09-27T01:52:02.757Z,10.05
2022-09-27T01:54:56.243Z,9.77
2022-09-27T01:57:27.666Z,8.60
2022-09-27T02:00:08.845Z,8.23
2022-09-27T02:02:51.727Z,6.97
2022-09-27T02:05:20.981Z,5.43
2022-09-27T02:08:02.064Z,6.03
2022-09-27T02:10:36.095Z,5.70
2022-09-27T02:13:06.455Z,5.35
2022-09-27T02:15:46.401Z,4.82
2022-09-27T02:18:23.559Z,3.92
2022-09-27T02:20:54.556Z,4.43
2022-09-27T02:23:41.715Z,4.10
2022-09-27T02:26:17.600Z,3.70
2022-09-27T02:28:53.131Z,3.88
2022-09-27T02:31:20.303Z,2.97
2022-09-27T02:33:56.721Z,2.50
2022-09-27T02:36:23.640Z,2.53
2022-09-27T02:38:51.236Z,4.50
2022-09-27T02:41:22.336Z,6.85
2022-09-27T02:43:53.835Z,6.70
2022-09-27T02:47:12.771Z,8.05
2022-09-27T02:49:48.613Z,7.35
2022-09-27T02:52:42.601Z,6.85
2022-09-27T02:55:19.947Z,6.65
2022-09-27T02:58:07.135Z,5.32
2022-09-27T03:00:57.933Z,4.72
2022-09-27T03:03:50.881Z,4.28
2022-09-27T03:06:20.765Z,3.97
2022-09-27T03:08:48.513Z,2.90
2022-09-27T03:11:15.292Z,2.88
2022-09-27T03:14:06.945Z,3.50
2022-09-27T03:16:30.694Z,3.10
2022-09-27T03:18:57.478Z,3.10
2022-09-27T03:21:24.177Z,3.20
2022-09-27T03:23:50.998Z,2.95
2022-09-27T03:26:17.737Z,2.30
2022-09-27T03:28:44.466Z,3.80
2022-09-27T03:31:11.363Z,4.63
2022-09-27T03:33:38.212Z,6.45
2022-09-27T03:36:05.124Z,6.18
2022-09-27T03:38:31.906Z,7.70
2022-09-27T03:40:59.138Z,8.07
2022-09-27T03:43:26.268Z,7.68
2022-09-27T03:45:53.106Z,9.00
2022-09-27T03:48:22.335Z,6.97
2022-09-27T03:50:51.779Z,7.85
2022-09-27T03:53:19.563Z,7.72
2022-09-27T03:55:46.524Z,7.93
2022-09-27T03:58:13.590Z,8.80
2022-09-27T04:00:41.291Z,8.55
2022-09-27T04:03:08.043Z,9.68
2022-09-27T04:05:34.779Z,9.57
2022-09-27T04:08:01.697Z,9.68
2022-09-27T04:10:28.442Z,10.45
2022-09-27T04:12:55.255Z,10.95
2022-09-27T04:15:22.178Z,10.82
2022-09-27T04:17:49.355Z,11.07
2022-09-27T04:20:16.355Z,11.02
2022-09-27T04:22:45.456Z,10.57
2022-09-27T04:25:12.662Z,10.73
2022-09-27T04:27:45.514Z,10.45
2022-09-27T04:30:12.870Z,10.77
2022-09-27T04:32:44.144Z,10.93
2022-09-27T04:35:30.730Z,9.93
2022-09-27T04:37:57.497Z,9.23
2022-09-27T04:40:24.871Z,9.77
2022-09-27T04:42:52.202Z,9.02
2022-09-27T04:45:20.049Z,8.88
2022-09-27T04:47:48.436Z,8.20
2022-09-27T04:50:17.418Z,7.90
2022-09-27T04:52:44.607Z,8.18
2022-09-27T04:55:11.595Z,7.40
2022-09-27T04:57:38.346Z,6.78
2022-09-27T05:00:05.915Z,7.07
2022-09-27T05:02:32.803Z,6.38
2022-09-27T05:05:00.559Z,7.20
2022-09-27T05:07:28.170Z,6.40
2022-09-27T05:09:55.857Z,6.97
2022-09-27T05:12:22.938Z,6.28
2022-09-27T05:14:49.720Z,6.55
2022-09-27T05:17:18.640Z,5.13
2022-09-27T05:19:45.450Z,5.60
2022-09-27T05:22:12.200Z,5.30
2022-09-27T05:24:39.280Z,4.55
2022-09-27T05:27:08.191Z,5.38
2022-09-27T05:29:35.658Z,5.60
2022-09-27T05:32:02.952Z,5.43
2022-09-27T05:34:32.557Z,6.30
2022-09-27T05:36:59.304Z,6.55
2022-09-27T05:39:26.200Z,6.70
2022-09-27T05:41:54.750Z,6.18
2022-09-27T05:44:21.945Z,6.55
2022-09-27T05:46:48.758Z,6.07
2022-09-27T05:49:15.934Z,6.15
2022-09-27T05:51:42.689Z,5.80
2022-09-27T05:54:09.561Z,6.15
2022-09-27T05:56:36.298Z,6.30
2022-09-27T05:59:03.069Z,6.63
2022-09-27T06:01:29.852Z,5.80
2022-09-27T06:03:56.891Z,5.15
2022-09-27T06:06:23.822Z,5.22
2022-09-27T06:08:50.639Z,5.13
2022-09-27T06:11:17.488Z,4.60
2022-09-27T06:13:44.319Z,4.63
2022-09-27T06:16:12.573Z,4.72
2022-09-27T06:18:39.646Z,6.95
2022-09-27T06:21:07.088Z,2.75
2022-09-27T06:23:33.914Z,2.17
2022-09-27T06:26:08.064Z,1.23
2022-09-27T06:28:35.656Z,1.10
2022-09-27T06:31:03.000Z,1.20
2022-09-27T06:33:29.821Z,1.20
2022-09-27T06:35:56.672Z,1.75
2022-09-27T06:38:25.918Z,1.90
2022-09-27T06:40:53.108Z,1.75
2022-09-27T06:43:20.990Z,0.85
2022-09-27T06:45:48.087Z,1.02
2022-09-27T06:48:17.146Z,0.80
2022-09-27T06:50:45.889Z,0.80
2022-09-27T06:53:15.158Z,0.65
2022-09-27T06:55:42.604Z,1.88
2022-09-27T06:58:31.552Z,1.45
2022-09-27T07:00:58.905Z,1.20
2022-09-27T07:03:35.575Z,0.98
2022-09-27T07:06:06.493Z,1.30
2022-09-27T07:08:35.903Z,0.73
2022-09-27T07:11:07.465Z,1.00
2022-09-27T07:13:37.151Z,1.23
2022-09-27T07:16:04.155Z,2.22
2022-09-27T07:18:31.142Z,1.27
2022-09-27T07:21:00.849Z,1.77
2022-09-27T07:23:28.111Z,2.05
2022-09-27T07:25:55.260Z,2.28
2022-09-27T07:28:22.555Z,1.85
2022-09-27T07:30:49.584Z,1.60
2022-09-27T07:33:16.587Z,1.70
2022-09-27T07:35:43.824Z,1.98
2022-09-27T07:38:14.260Z,1.58
2022-09-27T07:40:41.807Z,1.60
2022-09-27T07:43:12.467Z,1.50
2022-09-27T07:45:39.714Z,1.75
2022-09-27T07:48:08.616Z,1.08
2022-09-27T07:50:35.815Z,1.65
2022-09-27T07:53:02.621Z,0.80
2022-09-27T07:55:29.452Z,0.98
2022-09-27T07:58:08.850Z,0.80
2022-09-27T08:00:37.158Z,0.77
2022-09-27T08:03:08.922Z,0.73
2022-09-27T08:05:36.885Z,1.02
2022-09-27T08:08:04.412Z,0.73
2022-09-27T08:10:32.576Z,0.73
2022-09-27T08:13:03.653Z,0.98
2022-09-27T08:15:36.045Z,0.90
2022-09-27T08:18:02.923Z,0.98
2022-09-27T08:20:29.821Z,1.00
2022-09-27T08:22:56.819Z,0.98
2022-09-27T08:25:24.468Z,1.08
2022-09-27T08:27:59.206Z,1.10
2022-09-27T08:30:27.170Z,1.10
2022-09-27T08:33:02.463Z,1.30
2022-09-27T08:35:31.186Z,0.70
2022-09-27T08:38:00.539Z,1.10
2022-09-27T08:40:47.690Z,1.00
2022-09-27T08:43:22.955Z,1.15
2022-09-27T08:46:02.461Z,1.10
2022-09-27T08:48:30.401Z,0.93
2022-09-27T08:50:58.546Z,1.15
2022-09-27T08:53:34.945Z,1.00
2022-09-27T08:56:03.769Z,0.80
2022-09-27T08:58:45.882Z,0.90
2022-09-27T09:01:17.565Z,1.30
2022-09-27T09:06:22.044Z,0.90
2022-09-27T09:09:07.355Z,1.80
2022-09-27T09:12:11.757Z,2.42
2022-09-27T09:14:45.220Z,2.83
2022-09-27T09:17:43.568Z,1.52
2022-09-27T09:20:33.669Z,1.55
2022-09-27T09:23:00.468Z,1.80
2022-09-27T09:26:20.269Z,6.20
2022-09-27T09:29:19.871Z,1.92
2022-09-27T09:31:55.372Z,2.10
2022-09-27T09:34:31.650Z,1.65
2022-09-27T09:37:05.909Z,3.42
2022-09-27T09:39:44.231Z,3.65
2022-09-27T09:42:25.282Z,3.20
2022-09-27T09:44:54.322Z,3.57
2022-09-27T09:47:48.270Z,2.92
2022-09-27T09:50:22.297Z,3.33
2022-09-27T09:52:54.397Z,3.95
2022-09-27T09:55:28.585Z,3.83
2022-09-27T09:58:11.725Z,4.43
2022-09-27T10:00:40.313Z,4.20
2022-09-27T10:03:07.217Z,3.85
2022-09-27T10:05:34.874Z,4.22
2022-09-27T10:08:05.384Z,4.88
2022-09-27T10:10:32.180Z,4.90
2022-09-27T10:12:59.075Z,5.03
2022-09-27T10:15:30.520Z,4.95
2022-09-27T10:17:59.305Z,5.20
2022-09-27T10:20:34.268Z,5.53
2022-09-27T10:23:14.202Z,4.95
2022-09-27T10:26:01.023Z,4.93
2022-09-27T10:28:46.121Z,4.97
2022-09-27T10:31:18.139Z,4.75
2022-09-27T10:33:56.956Z,5.68
2022-09-27T10:36:35.228Z,5.15
2022-09-27T10:39:07.748Z,5.25
2022-09-27T10:41:42.308Z,6.35
2022-09-27T10:44:21.787Z,6.32
2022-09-27T10:46:51.531Z,5.57
2022-09-27T10:49:27.142Z,5.47
2022-09-27T10:51:57.662Z,5.25
2022-09-27T10:54:39.819Z,6.00
2022-09-27T10:57:15.750Z,5.72
2022-09-27T10:59:45.789Z,6.25
2022-09-27T11:02:34.267Z,5.90
2022-09-27T11:05:03.911Z,6.70
2022-09-27T11:07:30.713Z,6.45
2022-09-27T11:10:07.774Z,7.55
2022-09-27T11:12:36.655Z,5.78
2022-09-27T11:15:09.889Z,6.32
2022-09-27T11:18:08.046Z,5.82
2022-09-27T11:20:53.292Z,6.05
2022-09-27T11:23:48.870Z,6.28
2022-09-27T11:26:30.819Z,5.30
2022-09-27T11:29:18.462Z,6.18
2022-09-27T11:32:09.798Z,6.80
2022-09-27T11:34:54.155Z,6.75
2022-09-27T11:37:43.358Z,7.30
2022-09-27T11:40:22.091Z,6.75
2022-09-27T11:43:10.233Z,6.95
2022-09-27T11:46:14.278Z,7.50
2022-09-27T11:48:50.116Z,8.65
2022-09-27T11:51:51.070Z,7.38
2022-09-27T11:55:01.223Z,7.60
2022-09-27T11:57:34.469Z,7.03
2022-09-27T12:00:19.647Z,7.22
2022-09-27T12:02:58.401Z,6.97
2022-09-27T12:05:31.466Z,7.97
2022-09-27T12:08:24.309Z,7.65
2022-09-27T12:10:58.635Z,8.10
2022-09-27T12:13:43.590Z,8.63
2022-09-27T12:16:11.720Z,8.20
2022-09-27T12:18:41.020Z,8.65
2022-09-27T12:21:10.360Z,9.18
2022-09-27T12:23:50.207Z,9.07
2022-09-27T12:26:16.895Z,7.82
2022-09-27T12:29:05.591Z,12.35
2022-09-27T12:31:47.424Z,6.45
2022-09-27T12:34:34.275Z,9.07
2022-09-27T12:37:04.728Z,7.60
2022-09-27T12:39:55.678Z,8.05
2022-09-27T12:42:36.844Z,7.87
2022-09-27T12:45:04.224Z,7.68
2022-09-27T12:47:49.899Z,8.98
2022-09-27T12:50:34.723Z,11.48
2022-09-27T12:53:27.034Z,9.45
2022-09-27T12:56:15.611Z,12.43
2022-09-27T12:58:54.493Z,18.58
2022-09-27T13:01:47.980Z,9.50
2022-09-27T13:04:51.804Z,8.43
2022-09-27T13:07:27.357Z,8.40
2022-09-27T13:09:56.780Z,7.30
2022-09-27T13:12:27.325Z,8.45
2022-09-27T13:15:14.616Z,8.70
2022-09-27T13:17:49.943Z,8.65
2022-09-27T13:20:34.583Z,9.02
2022-09-27T13:23:17.970Z,8.98
2022-09-27T13:26:00.930Z,8.02
2022-09-27T13:28:33.305Z,8.07
2022-09-27T13:31:02.294Z,8.50
2022-09-27T13:33:33.653Z,9.07
2022-09-27T13:36:25.251Z,15.27
2022-09-27T13:39:14.228Z,16.08
2022-09-27T13:41:48.641Z,11.68
2022-09-27T13:44:18.550Z,13.32
2022-09-27T13:46:53.378Z,10.25
2022-09-27T13:49:31.238Z,14.20
2022-09-27T13:52:20.621Z,11.10
2022-09-27T13:54:55.350Z,8.23
2022-09-27T13:57:40.365Z,7.75
2022-09-27T14:00:13.094Z,8.48
2022-09-27T14:03:10.601Z,8.45
2022-09-27T14:05:53.084Z,13.18
2022-09-27T14:08:29.161Z,8.13
2022-09-27T14:10:57.478Z,8.18
2022-09-27T14:13:26.150Z,9.13
2022-09-27T14:15:55.310Z,8.63
2022-09-27T14:18:23.044Z,8.77
2022-09-27T14:20:52.348Z,8.77
2022-09-27T14:23:22.024Z,9.30
2022-09-27T14:25:51.828Z,8.38
2022-09-27T14:28:26.889Z,8.45
2022-09-27T14:31:25.933Z,7.95
2022-09-27T14:34:06.158Z,9.13
2022-09-27T14:36:53.037Z,9.38
2022-09-27T14:39:26.144Z,9.57
2022-09-27T14:41:53.152Z,9.13
2022-09-27T14:44:25.899Z,9.23
2022-09-27T14:47:22.503Z,10.65
2022-09-27T14:49:51.654Z,10.18
2022-09-27T14:52:30.009Z,10.20
2022-09-27T14:55:19.290Z,12.63
2022-09-27T14:58:35.739Z,12.45
2022-09-27T15:01:01.131Z,11.32
2022-09-27T15:03:37.535Z,11.18
2022-09-27T15:06:06.852Z,11.88
2022-09-27T15:08:34.737Z,14.05
2022-09-27T15:11:05.634Z,11.95
2022-09-27T15:13:33.290Z,11.98
2022-09-27T15:16:01.046Z,11.85
2022-09-27T15:18:46.710Z,11.75
2022-09-27T15:21:28.901Z,11.13
2022-09-27T15:23:56.683Z,13.05
2022-09-27T15:26:35.169Z,12.68
2022-09-27T15:29:02.437Z,17.00
2022-09-27T15:31:36.866Z,12.60
2022-09-27T15:34:07.737Z,12.90
2022-09-27T15:36:56.138Z,11.63
2022-09-27T15:39:35.625Z,12.57
2022-09-27T15:42:05.700Z,13.18
2022-09-27T15:44:43.317Z,13.35
2022-09-27T15:47:40.496Z,13.80
2022-09-27T15:50:30.429Z,14.95
2022-09-27T15:52:57.911Z,13.18
2022-09-27T15:55:27.113Z,13.95
2022-09-27T15:58:11.729Z,14.75
2022-09-27T16:00:55.459Z,13.80
2022-09-27T16:03:26.608Z,15.48
2022-09-27T16:05:56.063Z,14.20
2022-09-27T16:08:24.347Z,13.07
2022-09-27T16:10:55.519Z,12.05
2022-09-27T16:13:23.862Z,12.57
2022-09-27T16:15:52.394Z,12.85
2022-09-27T16:18:19.260Z,12.35
2022-09-27T16:20:46.613Z,13.32
2022-09-27T16:23:15.535Z,13.65
2022-09-27T16:25:42.821Z,13.10
2022-09-27T16:28:11.719Z,12.57
2022-09-27T16:30:38.587Z,13.13
2022-09-27T16:33:05.561Z,12.48
2022-09-27T16:35:32.320Z,12.65
2022-09-27T16:37:59.153Z,12.15
2022-09-27T16:40:28.515Z,12.60
2022-09-27T16:42:55.388Z,12.55
2022-09-27T16:45:22.197Z,12.75
2022-09-27T16:47:49.024Z,12.77
2022-09-27T16:50:34.367Z,11.95
2022-09-27T16:53:01.256Z,13.07
2022-09-27T16:55:29.328Z,14.05
2022-09-27T16:57:58.648Z,14.10
2022-09-27T17:00:25.977Z,15.05
2022-09-27T17:02:53.854Z,14.68
2022-09-27T17:05:23.200Z,15.02
2022-09-27T17:07:58.253Z,15.55
2022-09-27T17:10:24.992Z,15.95
2022-09-27T17:12:52.023Z,16.08
2022-09-27T17:15:18.846Z,16.02
2022-09-27T17:17:49.729Z,16.45
2022-09-27T17:20:16.812Z,17.17
2022-09-27T17:22:43.522Z,17.05
2022-09-27T17:25:10.462Z,17.75
2022-09-27T17:27:37.178Z,17.33
2022-09-27T17:30:05.392Z,17.90
2022-09-27T17:32:32.266Z,17.92
2022-09-27T17:34:59.034Z,17.60
2022-09-27T17:37:25.907Z,18.02
2022-09-27T17:39:52.792Z,17.38
2022-09-27T17:42:19.609Z,17.52
2022-09-27T17:44:46.547Z,16.80
2022-09-27T17:47:31.689Z,15.52
2022-09-27T17:50:17.100Z,16.25
2022-09-27T17:52:44.270Z,16.38
2022-09-27T17:55:11.170Z,15.23
2022-09-27T17:57:38.074Z,16.52
2022-09-27T18:00:06.197Z,16.45
2022-09-27T18:02:33.535Z,17.15
2022-09-27T18:05:01.079Z,15.93
2022-09-27T18:07:29.040Z,16.50
2022-09-27T18:09:57.151Z,16.55
2022-09-27T18:12:31.815Z,16.65
2022-09-27T18:15:00.435Z,15.15
2022-09-27T18:17:27.849Z,16.60
2022-09-27T18:19:58.399Z,16.63
2022-09-27T18:22:30.816Z,16.35
2022-09-27T18:24:59.700Z,16.55
2022-09-27T18:27:26.407Z,17.38
2022-09-27T18:29:55.914Z,16.98
2022-09-27T18:32:22.704Z,17.10
2022-09-27T18:34:49.916Z,16.70
2022-09-27T18:37:17.317Z,17.42
2022-09-27T18:39:44.168Z,18.33
2022-09-27T18:42:10.933Z,18.90
2022-09-27T18:44:37.702Z,16.75
2022-09-27T18:47:05.145Z,17.10
2022-09-27T18:49:34.168Z,17.25
2022-09-27T18:52:05.005Z,18.60
2022-09-27T18:54:33.373Z,17.75
2022-09-27T18:57:00.136Z,18.15
2022-09-27T18:59:29.738Z,18.45
2022-09-27T19:01:58.170Z,17.33
2022-09-27T19:04:25.908Z,18.67
2022-09-27T19:06:55.493Z,18.85
2022-09-27T19:09:27.727Z,18.67
2022-09-27T19:11:58.591Z,18.73
2022-09-27T19:14:25.945Z,19.17
2022-09-27T19:16:52.903Z,20.17
2022-09-27T19:19:20.892Z,19.50
2022-09-27T19:21:49.265Z,19.67
2022-09-27T19:24:18.749Z,19.95
2022-09-27T19:26:45.524Z,19.33
2022-09-27T19:29:14.504Z,20.77
2022-09-27T19:31:42.440Z,20.92
2022-09-27T19:34:12.501Z,18.58
2022-09-27T19:36:40.011Z,21.30
2022-09-27T19:39:10.779Z,20.73
2022-09-27T19:41:37.553Z,20.50
2022-09-27T19:44:05.046Z,21.92
2022-09-27T19:46:32.045Z,21.42
2022-09-27T19:49:00.346Z,20.83
2022-09-27T19:51:28.144Z,21.35
2022-09-27T19:53:57.481Z,21.30
2022-09-27T19:56:26.949Z,21.52
2022-09-27T19:58:57.655Z,20.58
2022-09-27T20:01:26.066Z,20.40
2022-09-27T20:03:59.758Z,21.77
2022-09-27T20:06:27.118Z,23.27
2022-09-27T20:08:55.775Z,21.50
2022-09-27T20:11:24.483Z,22.52
2022-09-27T20:13:57.569Z,22.73
2022-09-27T20:16:28.436Z,22.10
2022-09-27T20:18:57.874Z,22.58
2022-09-27T20:21:30.417Z,23.67
2022-09-27T20:23:58.861Z,23.90
2022-09-27T20:26:30.221Z,22.98
2022-09-27T20:29:02.766Z,22.70
2022-09-27T20:31:37.091Z,22.80
2022-09-27T20:34:06.417Z,22.45
2022-09-27T20:36:38.480Z,23.45
2022-09-27T20:39:09.799Z,23.20
2022-09-27T20:41:45.415Z,23.20
2022-09-27T20:44:18.555Z,24.17
2022-09-27T20:46:48.487Z,23.70
2022-09-27T20:49:18.678Z,23.98
2022-09-27T20:51:51.277Z,23.90
2022-09-27T20:54:19.280Z,24.13
2022-09-27T20:56:48.043Z,23.25
2022-09-27T20:59:20.837Z,24.58
2022-09-27T21:05:34.629Z,23.08
2022-09-27T21:08:01.528Z,23.80
2022-09-27T21:10:28.243Z,24.20
2022-09-27T21:12:55.058Z,24.73
2022-09-27T21:15:21.955Z,22.95
2022-09-27T21:17:50.276Z,24.65
2022-09-27T21:20:17.184Z,24.27
2022-09-27T21:22:44.464Z,24.67
2022-09-27T21:25:11.486Z,23.63
2022-09-27T21:27:38.270Z,25.40
2022-09-27T21:30:05.933Z,23.73
2022-09-27T21:32:33.095Z,24.40
2022-09-27T21:35:00.588Z,24.00
2022-09-27T21:37:28.009Z,24.48
2022-09-27T21:39:54.885Z,23.60
2022-09-27T21:42:21.704Z,22.45
2022-09-27T21:44:48.569Z,24.80
2022-09-27T21:47:15.329Z,22.90
2022-09-27T21:49:42.104Z,23.20
2022-09-27T21:52:08.889Z,25.05
2022-09-27T21:54:35.658Z,25.52
2022-09-27T21:57:02.640Z,26.63
2022-09-27T21:59:29.391Z,25.13
2022-09-27T22:01:56.254Z,26.90
2022-09-27T22:04:23.301Z,26.23
2022-09-27T22:06:51.776Z,25.15
2022-09-27T22:09:18.696Z,27.45
2022-09-27T22:11:47.445Z,27.48
2022-09-27T22:14:16.932Z,28.10
2022-09-27T22:16:43.916Z,25.80
2022-09-27T22:19:12.317Z,26.55
2022-09-27T22:21:40.025Z,27.08
2022-09-27T22:24:11.263Z,27.27
2022-09-27T22:26:40.267Z,29.90
2022-09-27T22:29:08.060Z,25.50
2022-09-27T22:31:36.035Z,24.75
2022-09-27T22:34:05.448Z,28.38
2022-09-27T22:36:33.650Z,28.13
2022-09-27T22:39:00.851Z,29.30
2022-09-27T22:41:30.590Z,29.73
2022-09-27T22:43:58.032Z,28.58
2022-09-27T22:46:25.342Z,27.40
2022-09-27T22:48:52.695Z,29.70
2022-09-27T22:51:19.645Z,29.98
2022-09-27T22:53:46.538Z,29.50
2022-09-27T22:56:18.664Z,30.58
2022-09-27T22:58:47.380Z,29.00
2022-09-27T23:01:20.219Z,28.60
2022-09-27T23:03:48.613Z,27.75
2022-09-27T23:06:17.193Z,29.58
2022-09-27T23:08:44.099Z,29.20
2022-09-27T23:11:19.673Z,29.75
2022-09-27T23:13:48.078Z,28.08
2022-09-27T23:16:17.860Z,24.02
2022-09-27T23:18:47.233Z,27.77
2022-09-27T23:21:15.566Z,28.02
2022-09-27T23:23:47.165Z,27.55
2022-09-27T23:26:16.134Z,27.92
2022-09-27T23:28:43.014Z,28.40
2022-09-27T23:31:13.582Z,27.10
2022-09-27T23:33:44.829Z,28.65
2022-09-27T23:36:15.162Z,27.65
2022-09-27T23:38:42.384Z,28.48
2022-09-27T23:41:09.394Z,24.08
2022-09-27T23:43:36.435Z,25.38
2022-09-27T23:46:04.809Z,24.77
2022-09-27T23:48:31.729Z,26.00
2022-09-27T23:50:58.456Z,25.73
2022-09-27T23:53:25.295Z,26.00
2022-09-27T23:56:03.565Z,25.65
2022-09-27T23:58:34.680Z,26.05
